createdAt,value
2023-03-03T00:02:05.937Z,101797.22
2023-03-03T00:04:32.318Z,101801.69
2023-03-03T00:06:58.683Z,101809.84
2023-03-03T00:09:25.024Z,101798.31
2023-03-03T00:11:56.040Z,101804.75
2023-03-03T00:14:28.563Z,101810.91
2023-03-03T00:16:56.545Z,101808.41
2023-03-03T00:19:23.416Z,101800.78
2023-03-03T00:21:51.455Z,101801.53
2023-03-03T00:24:24.418Z,101797.53
2023-03-03T00:26:56.141Z,101786.03
2023-03-03T00:29:45.722Z,101778.81
2023-03-03T00:32:12.076Z,101788.72
2023-03-03T00:34:38.458Z,101784.00
2023-03-03T00:37:27.759Z,101784.31
2023-03-03T00:39:58.571Z,101796.56
2023-03-03T00:42:27.716Z,101786.56
2023-03-03T00:45:37.290Z,101776.97
2023-03-03T00:48:29.978Z,101776.72
2023-03-03T00:50:58.669Z,101782.84
2023-03-03T00:53:30.279Z,101785.09
2023-03-03T00:55:57.417Z,101783.59
2023-03-03T00:58:24.740Z,101770.81
2023-03-03T01:00:53.705Z,101779.19
2023-03-03T01:03:22.760Z,101776.00
2023-03-03T01:05:49.827Z,101762.19
2023-03-03T01:08:16.557Z,101763.44
2023-03-03T01:10:50.966Z,101761.13
2023-03-03T01:13:20.612Z,101778.84
2023-03-03T01:15:47.043Z,101772.09
2023-03-03T01:18:14.227Z,101776.31
2023-03-03T01:20:41.435Z,101764.59
2023-03-03T01:23:08.391Z,101765.03
2023-03-03T01:25:35.076Z,101764.72
2023-03-03T01:28:01.450Z,101763.53
2023-03-03T01:30:27.864Z,101757.97
2023-03-03T01:32:54.440Z,101756.69
2023-03-03T01:35:21.185Z,101755.63
2023-03-03T01:37:47.641Z,101741.22
2023-03-03T01:40:23.678Z,101743.25
2023-03-03T01:42:50.085Z,101731.97
2023-03-03T01:45:26.291Z,101732.91
2023-03-03T01:48:06.402Z,101738.34
2023-03-03T01:50:47.773Z,101727.72
2023-03-03T01:53:23.925Z,101725.03
2023-03-03T01:55:51.957Z,101727.78
2023-03-03T01:58:46.814Z,101731.84
2023-03-03T02:01:20.789Z,101735.88
2023-03-03T02:03:48.385Z,101730.22
2023-03-03T02:06:18.292Z,101734.22
2023-03-03T02:08:53.622Z,101731.78
2023-03-03T02:11:21.578Z,101743.19
2023-03-03T02:13:48.144Z,101755.47
2023-03-03T02:16:15.012Z,101754.31
2023-03-03T02:18:41.403Z,101752.16
2023-03-03T02:21:14.353Z,101745.19
2023-03-03T02:24:27.611Z,101758.50
2023-03-03T02:26:54.131Z,101749.00
2023-03-03T02:29:20.665Z,101752.84
2023-03-03T02:31:47.135Z,101766.19
2023-03-03T02:34:13.551Z,101755.09
2023-03-03T02:36:40.031Z,101749.72
2023-03-03T02:39:10.718Z,101753.13
2023-03-03T02:41:51.317Z,101746.00
2023-03-03T02:44:20.261Z,101746.56
2023-03-03T02:46:48.309Z,101757.03
2023-03-03T02:49:17.160Z,101756.81
2023-03-03T02:51:43.694Z,101756.03
2023-03-03T02:54:12.990Z,101755.19
2023-03-03T02:56:39.978Z,101755.69
2023-03-03T02:59:07.489Z,101751.19
2023-03-03T03:01:37.092Z,101752.94
2023-03-03T03:04:09.402Z,101756.25
2023-03-03T03:06:36.267Z,101754.16
2023-03-03T03:09:03.300Z,101761.94
2023-03-03T03:11:29.712Z,101757.00
2023-03-03T03:13:56.067Z,101754.94
2023-03-03T03:16:22.509Z,101770.19
2023-03-03T03:18:50.614Z,101775.34
2023-03-03T03:21:17.067Z,101777.19
2023-03-03T03:23:43.440Z,101778.13
2023-03-03T03:26:10.102Z,101782.66
2023-03-03T03:28:36.936Z,101780.34
2023-03-03T03:31:05.063Z,101784.63
2023-03-03T03:33:31.509Z,101782.06
2023-03-03T03:35:59.740Z,101781.41
2023-03-03T03:38:27.271Z,101793.16
2023-03-03T03:40:54.383Z,101789.00
2023-03-03T03:43:20.775Z,101772.16
2023-03-03T03:45:47.166Z,101774.13
2023-03-03T03:48:13.814Z,101772.16
2023-03-03T03:50:40.202Z,101770.72
2023-03-03T03:53:07.062Z,101768.84
2023-03-03T03:55:33.734Z,101770.97
2023-03-03T03:58:00.225Z,101756.00
2023-03-03T04:00:26.637Z,101763.78
2023-03-03T04:02:53.098Z,101760.00
2023-03-03T04:05:19.524Z,101755.56
2023-03-03T04:07:45.888Z,101748.00
2023-03-03T04:10:12.472Z,101750.06
2023-03-03T04:12:38.840Z,101750.47
2023-03-03T04:15:13.733Z,101748.94
2023-03-03T04:17:40.420Z,101751.66
2023-03-03T04:20:07.667Z,101750.94
2023-03-03T04:22:35.963Z,101750.16
2023-03-03T04:25:05.119Z,101740.06
2023-03-03T04:27:32.995Z,101739.66
2023-03-03T04:29:59.427Z,101739.91
2023-03-03T04:32:26.246Z,101734.09
2023-03-03T04:35:05.626Z,101744.72
2023-03-03T04:37:34.127Z,101745.44
2023-03-03T04:40:00.685Z,101734.03
2023-03-03T04:42:28.116Z,101731.72
2023-03-03T04:44:54.883Z,101736.16
2023-03-03T04:47:21.250Z,101753.84
2023-03-03T04:49:47.637Z,101749.69
2023-03-03T04:52:14.006Z,101748.72
2023-03-03T04:54:40.525Z,101751.91
2023-03-03T04:57:07.824Z,101751.28
2023-03-03T04:59:34.259Z,101745.69
2023-03-03T05:02:00.633Z,101743.31
2023-03-03T05:04:27.017Z,101732.72
2023-03-03T05:06:53.394Z,101738.09
2023-03-03T05:09:19.779Z,101726.59
2023-03-03T05:11:46.144Z,101723.53
2023-03-03T05:14:12.510Z,101729.66
2023-03-03T05:16:38.866Z,101722.53
2023-03-03T05:19:05.255Z,101729.97
2023-03-03T05:21:31.631Z,101718.47
2023-03-03T05:23:58.011Z,101718.97
2023-03-03T05:26:24.387Z,101729.06
2023-03-03T05:28:50.746Z,101729.72
2023-03-03T05:31:17.178Z,101732.31
2023-03-03T05:33:43.547Z,101747.22
2023-03-03T05:36:09.918Z,101750.56
2023-03-03T05:38:36.283Z,101749.38
2023-03-03T05:41:02.638Z,101757.91
2023-03-03T05:43:29.317Z,101763.03
2023-03-03T05:45:59.046Z,101762.31
2023-03-03T05:48:25.447Z,101766.38
2023-03-03T05:50:52.168Z,101765.28
2023-03-03T05:53:18.595Z,101766.69
2023-03-03T05:55:44.979Z,101770.94
2023-03-03T05:58:12.051Z,101773.31
2023-03-03T06:00:38.586Z,101769.44
2023-03-03T06:03:04.984Z,101776.38
2023-03-03T06:05:31.421Z,101776.22
2023-03-03T06:07:57.857Z,101778.06
2023-03-03T06:10:24.785Z,101765.69
2023-03-03T06:12:51.613Z,101762.88
2023-03-03T06:15:18.273Z,101770.47
2023-03-03T06:17:44.647Z,101770.78
2023-03-03T06:20:11.636Z,101767.72
2023-03-03T06:22:38.026Z,101776.66
2023-03-03T06:25:04.747Z,101781.97
2023-03-03T06:27:31.256Z,101776.31
2023-03-03T06:29:57.670Z,101792.38
2023-03-03T06:32:24.048Z,101782.41
2023-03-03T06:34:50.481Z,101784.38
2023-03-03T06:37:17.041Z,101790.16
2023-03-03T06:39:43.425Z,101794.44
2023-03-03T06:42:09.850Z,101787.31
2023-03-03T06:44:36.353Z,101786.88
2023-03-03T06:47:02.731Z,101789.28
2023-03-03T06:49:29.117Z,101795.91
2023-03-03T06:51:56.388Z,101796.13
2023-03-03T06:54:30.750Z,101794.59
2023-03-03T06:57:08.927Z,101797.16
2023-03-03T06:59:35.298Z,101805.84
2023-03-03T07:02:01.973Z,101816.88
2023-03-03T07:04:31.769Z,101821.00
2023-03-03T07:07:00.166Z,101827.94
2023-03-03T07:09:29.123Z,101815.59
2023-03-03T07:12:06.726Z,101818.94
2023-03-03T07:14:35.145Z,101815.16
2023-03-03T07:17:05.066Z,101833.81
2023-03-03T07:19:36.006Z,101817.78
2023-03-03T07:22:14.881Z,101821.69
2023-03-03T07:24:42.318Z,101829.72
2023-03-03T07:27:37.991Z,101828.38
2023-03-03T07:30:16.174Z,101824.97
2023-03-03T07:32:46.166Z,101829.28
2023-03-03T07:35:47.246Z,101841.81
2023-03-03T07:38:24.603Z,101837.41
2023-03-03T07:40:57.031Z,101838.78
2023-03-03T07:43:31.253Z,101839.47
2023-03-03T07:46:36.418Z,101838.50
2023-03-03T07:49:20.564Z,101839.31
2023-03-03T07:51:47.006Z,101839.94
2023-03-03T07:54:35.149Z,101846.00
2023-03-03T07:57:33.966Z,101849.25
2023-03-03T08:00:20.583Z,101856.53
2023-03-03T08:03:00.531Z,101850.28
2023-03-03T08:05:40.011Z,101845.28
2023-03-03T08:08:09.063Z,101844.69
2023-03-03T08:10:49.107Z,101843.31
2023-03-03T08:13:21.826Z,101851.59
2023-03-03T08:16:02.526Z,101848.72
2023-03-03T08:18:34.384Z,101828.81
2023-03-03T08:21:07.175Z,101829.59
2023-03-03T08:23:33.537Z,101847.75
2023-03-03T08:26:00.052Z,101841.66
2023-03-03T08:28:26.433Z,101838.19
2023-03-03T08:31:02.656Z,101837.25
2023-03-03T08:33:32.578Z,101844.06
2023-03-03T08:35:59.406Z,101847.06
2023-03-03T08:38:26.265Z,101842.78
2023-03-03T08:40:52.673Z,101838.06
2023-03-03T08:43:21.566Z,101839.69
2023-03-03T08:45:49.841Z,101839.94
2023-03-03T08:48:16.763Z,101845.84
2023-03-03T08:50:44.261Z,101841.47
2023-03-03T08:53:12.696Z,101850.16
2023-03-03T08:55:39.574Z,101851.00
2023-03-03T08:58:06.363Z,101850.63
2023-03-03T09:00:32.940Z,101843.84
2023-03-03T09:02:59.315Z,101848.63
2023-03-03T09:05:27.270Z,101848.38
2023-03-03T09:07:55.220Z,101843.03
2023-03-03T09:10:27.490Z,101821.72
2023-03-03T09:12:56.617Z,101831.63
2023-03-03T09:15:25.476Z,101824.34
2023-03-03T09:17:52.347Z,101832.34
2023-03-03T09:20:37.450Z,101829.22
2023-03-03T09:23:34.944Z,101829.84
2023-03-03T09:26:39.013Z,101837.00
2023-03-03T09:29:14.500Z,101825.84
2023-03-03T09:31:47.791Z,101825.97
2023-03-03T09:34:42.420Z,101827.44
2023-03-03T09:37:32.416Z,101834.59
2023-03-03T09:39:58.995Z,101832.63
2023-03-03T09:42:42.774Z,101844.94
2023-03-03T09:45:40.108Z,101838.47
2023-03-03T09:48:12.653Z,101837.63
2023-03-03T09:50:53.048Z,101836.88
2023-03-03T09:53:33.753Z,101837.56
2023-03-03T09:56:30.348Z,101828.59
2023-03-03T09:59:31.637Z,101834.06
2023-03-03T10:02:16.837Z,101837.81
2023-03-03T10:04:59.995Z,101834.16
2023-03-03T10:07:35.614Z,101840.97
2023-03-03T10:10:23.789Z,101834.03
2023-03-03T10:13:41.499Z,101840.78
2023-03-03T10:16:36.243Z,101837.78
2023-03-03T10:19:15.019Z,101840.03
2023-03-03T10:22:01.419Z,101835.94
2023-03-03T10:24:31.820Z,101830.34
2023-03-03T10:27:45.104Z,101829.28
2023-03-03T10:30:48.520Z,101827.41
2023-03-03T10:33:37.375Z,101827.81
2023-03-03T10:36:30.492Z,101829.94
2023-03-03T10:39:26.861Z,101836.16
2023-03-03T10:42:24.785Z,101828.28
2023-03-03T10:44:56.685Z,101835.22
2023-03-03T10:47:45.926Z,101837.19
2023-03-03T10:50:21.536Z,101838.56
2023-03-03T10:53:15.986Z,101834.00
2023-03-03T10:55:57.806Z,101841.44
2023-03-03T10:58:40.913Z,101839.81
2023-03-03T11:01:26.772Z,101836.91
2023-03-03T11:04:19.509Z,101839.94
2023-03-03T11:07:11.405Z,101838.28
2023-03-03T11:09:50.730Z,101830.72
2023-03-03T11:12:47.223Z,101834.91
2023-03-03T11:15:20.673Z,101843.25
2023-03-03T11:18:15.385Z,101826.16
2023-03-03T11:21:12.634Z,101830.94
2023-03-03T11:24:18.077Z,101832.75
2023-03-03T11:27:06.801Z,101828.66
2023-03-03T11:29:51.218Z,101830.53
2023-03-03T11:32:29.736Z,101827.19
2023-03-03T11:35:19.520Z,101834.34
2023-03-03T11:38:02.134Z,101824.16
2023-03-03T11:40:37.862Z,101824.59
2023-03-03T11:43:18.574Z,101823.06
2023-03-03T11:45:59.857Z,101823.22
2023-03-03T11:48:42.421Z,101824.16
2023-03-03T11:51:19.717Z,101822.19
2023-03-03T11:53:59.389Z,101820.50
2023-03-03T11:56:41.272Z,101817.38
2023-03-03T11:59:33.400Z,101816.63
2023-03-03T12:02:28.527Z,101815.97
2023-03-03T12:05:19.568Z,101799.31
2023-03-03T12:08:08.260Z,101797.81
2023-03-03T12:11:08.942Z,101794.84
2023-03-03T12:14:01.638Z,101785.72
2023-03-03T12:16:42.822Z,101789.84
2023-03-03T12:19:31.057Z,101784.09
2023-03-03T12:22:29.593Z,101787.69
2023-03-03T12:25:15.303Z,101767.44
2023-03-03T12:27:49.264Z,101765.44
2023-03-03T12:30:21.649Z,101763.91
2023-03-03T12:33:07.371Z,101761.16
2023-03-03T12:35:57.299Z,101756.41
2023-03-03T12:38:51.776Z,101768.22
2023-03-03T12:41:29.883Z,101758.84
2023-03-03T12:44:07.104Z,101759.31
2023-03-03T12:46:59.786Z,101760.53
2023-03-03T12:49:43.463Z,101756.19
2023-03-03T12:52:53.094Z,101756.31
2023-03-03T12:55:42.684Z,101766.31
2023-03-03T12:58:35.365Z,101756.19
2023-03-03T13:01:20.161Z,101747.72
2023-03-03T13:03:57.547Z,101736.91
2023-03-03T13:06:32.209Z,101740.44
2023-03-03T13:09:37.258Z,101739.81
2023-03-03T13:12:18.873Z,101740.06
2023-03-03T13:15:08.723Z,101733.31
2023-03-03T13:18:03.938Z,101728.06
2023-03-03T13:20:53.814Z,101734.78
2023-03-03T13:23:44.619Z,101726.19
2023-03-03T13:26:20.123Z,101716.31
2023-03-03T13:28:58.692Z,101723.59
2023-03-03T13:31:32.903Z,101712.00
2023-03-03T13:34:01.985Z,101713.91
2023-03-03T13:36:39.012Z,101718.00
2023-03-03T13:39:17.900Z,101718.66
2023-03-03T13:41:56.971Z,101718.34
2023-03-03T13:44:42.802Z,101715.47
2023-03-03T13:47:36.146Z,101720.28
2023-03-03T13:50:22.549Z,101708.03
2023-03-03T13:53:04.996Z,101716.34
2023-03-03T13:55:41.027Z,101699.56
2023-03-03T13:58:38.298Z,101701.34
2023-03-03T14:01:13.613Z,101695.38
2023-03-03T14:03:40.008Z,101690.88
2023-03-03T14:06:14.884Z,101696.25
2023-03-03T14:09:22.541Z,101692.63
2023-03-03T14:12:21.718Z,101683.34
2023-03-03T14:14:55.696Z,101683.53
2023-03-03T14:17:34.660Z,101682.47
2023-03-03T14:20:15.718Z,101672.34
2023-03-03T14:22:45.757Z,101682.47
2023-03-03T14:25:14.815Z,101672.91
2023-03-03T14:27:44.461Z,101684.75
2023-03-03T14:30:23.773Z,101679.13
2023-03-03T14:33:09.746Z,101654.94
2023-03-03T14:35:42.468Z,101661.03
2023-03-03T14:38:08.830Z,101651.13
2023-03-03T14:40:38.953Z,101667.16
2023-03-03T14:43:39.136Z,101659.00
2023-03-03T14:46:27.707Z,101657.44
2023-03-03T14:48:57.613Z,101662.44
2023-03-03T14:51:28.990Z,101636.16
2023-03-03T14:53:57.400Z,101639.69
2023-03-03T14:56:31.220Z,101643.19
2023-03-03T14:59:18.741Z,101642.13
2023-03-03T15:01:46.047Z,101638.00
2023-03-03T15:04:15.378Z,101633.78
2023-03-03T15:06:55.402Z,101630.81
2023-03-03T15:09:43.205Z,101639.06
2023-03-03T15:12:36.235Z,101640.78
2023-03-03T15:15:26.814Z,101638.19
2023-03-03T15:17:58.070Z,101625.72
2023-03-03T15:20:52.770Z,101630.13
2023-03-03T15:23:37.938Z,101630.50
2023-03-03T15:26:32.430Z,101624.47
2023-03-03T15:29:17.290Z,101613.25
2023-03-03T15:32:20.089Z,101613.00
2023-03-03T15:35:14.363Z,101614.06
2023-03-03T15:37:47.130Z,101614.06
2023-03-03T15:40:37.971Z,101616.63
2023-03-03T15:43:27.144Z,101616.72
2023-03-03T15:46:13.772Z,101602.91
2023-03-03T15:48:58.201Z,101604.59
2023-03-03T15:51:50.714Z,101599.88
2023-03-03T15:54:42.261Z,101595.72
2023-03-03T15:57:35.017Z,101588.50
2023-03-03T16:00:22.202Z,101587.25
2023-03-03T16:02:59.099Z,101592.16
2023-03-03T16:05:31.531Z,101588.78
2023-03-03T16:08:00.931Z,101584.66
2023-03-03T16:11:03.886Z,101584.00
2023-03-03T16:14:02.198Z,101581.94
2023-03-03T16:16:54.362Z,101584.13
2023-03-03T16:19:38.664Z,101581.94
2023-03-03T16:22:24.104Z,101579.63
2023-03-03T16:25:16.471Z,101580.91
2023-03-03T16:28:10.117Z,101582.31
2023-03-03T16:31:10.923Z,101586.03
2023-03-03T16:33:50.807Z,101575.47
2023-03-03T16:36:37.041Z,101576.34
2023-03-03T16:39:23.148Z,101575.47
2023-03-03T16:42:00.443Z,101573.59
2023-03-03T16:44:49.309Z,101573.00
2023-03-03T16:47:35.891Z,101561.63
2023-03-03T16:50:26.340Z,101570.22
2023-03-03T16:53:17.526Z,101576.16
2023-03-03T16:56:09.800Z,101571.75
2023-03-03T16:58:58.628Z,101574.59
2023-03-03T17:01:29.523Z,101565.03
2023-03-03T17:04:00.707Z,101573.06
2023-03-03T17:06:36.514Z,101572.13
2023-03-03T17:09:32.218Z,101568.78
2023-03-03T17:12:25.870Z,101577.94
2023-03-03T17:15:22.197Z,101571.22
2023-03-03T17:18:00.500Z,101568.75
2023-03-03T17:20:46.048Z,101563.47
2023-03-03T17:23:41.310Z,101568.09
2023-03-03T17:26:30.745Z,101567.84
2023-03-03T17:29:15.269Z,101567.84
2023-03-03T17:32:08.440Z,101573.63
2023-03-03T17:34:47.987Z,101576.88
2023-03-03T17:37:44.065Z,101574.13
2023-03-03T17:40:35.827Z,101578.91
2023-03-03T17:43:29.636Z,101581.34
2023-03-03T17:46:02.113Z,101570.91
2023-03-03T17:49:08.586Z,101572.84
2023-03-03T17:51:51.516Z,101570.69
2023-03-03T17:54:31.932Z,101559.81
2023-03-03T17:57:28.056Z,101559.69
2023-03-03T18:00:14.962Z,101574.16
2023-03-03T18:03:12.587Z,101571.44
2023-03-03T18:05:50.739Z,101560.97
2023-03-03T18:09:01.987Z,101559.41
2023-03-03T18:12:18.301Z,101561.34
2023-03-03T18:15:12.008Z,101556.06
2023-03-03T18:18:05.478Z,101562.38
2023-03-03T18:20:47.028Z,101562.28
2023-03-03T18:23:41.750Z,101560.34
2023-03-03T18:26:41.217Z,101557.22
2023-03-03T18:29:16.606Z,101557.22
2023-03-03T18:31:51.904Z,101540.56
2023-03-03T18:34:21.209Z,101541.84
2023-03-03T18:36:55.644Z,101539.41
2023-03-03T18:39:41.037Z,101542.25
2023-03-03T18:42:16.162Z,101539.69
2023-03-03T18:44:44.057Z,101536.66
2023-03-03T18:47:11.261Z,101539.00
2023-03-03T18:49:52.697Z,101547.16
2023-03-03T18:52:30.082Z,101541.72
2023-03-03T18:55:24.194Z,101538.88
2023-03-03T18:58:28.622Z,101543.00
2023-03-03T19:01:30.396Z,101544.03
2023-03-03T19:04:09.894Z,101530.81
2023-03-03T19:06:36.178Z,101536.75
2023-03-03T19:09:03.903Z,101533.41
2023-03-03T19:11:40.763Z,101530.81
2023-03-03T19:14:29.589Z,101527.09
2023-03-03T19:16:58.510Z,101531.34
2023-03-03T19:19:34.333Z,101527.47
2023-03-03T19:22:27.189Z,101528.00
2023-03-03T19:25:08.805Z,101527.34
2023-03-03T19:28:11.197Z,101526.97
2023-03-03T19:30:55.853Z,101522.84
2023-03-03T19:33:56.759Z,101520.50
2023-03-03T19:36:47.292Z,101518.56
2023-03-03T19:39:26.436Z,101509.16
2023-03-03T19:42:28.085Z,101516.16
2023-03-03T19:45:15.154Z,101523.25
2023-03-03T19:48:04.476Z,101515.63
2023-03-03T19:50:45.798Z,101523.38
2023-03-03T19:53:24.971Z,101525.19
2023-03-03T19:56:07.014Z,101511.22
2023-03-03T19:58:45.647Z,101513.41
2023-03-03T20:01:49.398Z,101518.75
2023-03-03T20:04:31.403Z,101517.69
2023-03-03T20:07:16.103Z,101524.28
2023-03-03T20:09:52.033Z,101516.78
2023-03-03T20:12:50.587Z,101510.06
2023-03-03T20:15:28.366Z,101504.41
2023-03-03T20:18:34.912Z,101504.00
2023-03-03T20:21:12.101Z,101503.75
2023-03-03T20:24:16.336Z,101510.06
2023-03-03T20:27:13.986Z,101490.16
2023-03-03T20:29:51.406Z,101496.38
2023-03-03T20:33:08.056Z,101508.78
2023-03-03T20:35:40.513Z,101500.88
2023-03-03T20:38:18.336Z,101491.97
2023-03-03T20:41:06.045Z,101502.69
2023-03-03T20:43:57.186Z,101503.22
2023-03-03T20:46:30.404Z,101500.22
2023-03-03T20:49:27.594Z,101498.31
2023-03-03T20:52:19.210Z,101491.47
2023-03-03T20:55:17.514Z,101485.28
2023-03-03T20:57:53.053Z,101490.03
2023-03-03T21:00:43.909Z,101495.22
2023-03-03T21:03:37.373Z,101487.84
2023-03-03T21:06:15.454Z,101482.41
2023-03-03T21:08:55.055Z,101479.81
2023-03-03T21:11:43.266Z,101484.72
2023-03-03T21:14:26.533Z,101479.31
2023-03-03T21:16:58.332Z,101481.91
2023-03-03T21:19:27.632Z,101474.25
2023-03-03T21:21:55.414Z,101470.75
2023-03-03T21:24:22.603Z,101463.03
2023-03-03T21:26:59.918Z,101467.94
2023-03-03T21:29:27.563Z,101458.13
2023-03-03T21:31:58.710Z,101459.66
2023-03-03T21:34:34.246Z,101463.41
2023-03-03T21:37:05.537Z,101458.00
2023-03-03T21:39:37.530Z,101453.72
2023-03-03T21:42:09.225Z,101447.78
2023-03-03T21:44:44.634Z,101457.84
2023-03-03T21:47:14.662Z,101452.44
2023-03-03T21:49:46.002Z,101449.44
2023-03-03T21:52:14.937Z,101455.78
2023-03-03T21:54:41.280Z,101441.31
2023-03-03T21:57:07.658Z,101445.59
2023-03-03T21:59:34.022Z,101437.19
2023-03-03T22:02:00.486Z,101431.38
2023-03-03T22:04:26.875Z,101431.75
2023-03-03T22:06:53.243Z,101430.97
2023-03-03T22:09:19.674Z,101432.00
2023-03-03T22:11:46.527Z,101432.78
2023-03-03T22:14:13.140Z,101427.63
2023-03-03T22:16:39.619Z,101427.63
2023-03-03T22:19:09.086Z,101423.88
2023-03-03T22:21:36.698Z,101428.53
2023-03-03T22:24:04.059Z,101419.50
2023-03-03T22:26:30.421Z,101413.44
2023-03-03T22:28:56.808Z,101412.56
2023-03-03T22:31:23.233Z,101406.47
2023-03-03T22:33:49.643Z,101402.84
2023-03-03T22:36:16.379Z,101391.47
2023-03-03T22:38:42.889Z,101386.31
2023-03-03T22:41:09.309Z,101386.19
2023-03-03T22:43:35.665Z,101386.69
2023-03-03T22:46:02.075Z,101385.53
2023-03-03T22:48:29.179Z,101385.91
2023-03-03T22:50:55.590Z,101380.22
2023-03-03T22:53:22.304Z,101388.09
2023-03-03T22:55:48.787Z,101382.00
2023-03-03T22:58:19.665Z,101380.06
2023-03-03T23:00:47.577Z,101363.66
2023-03-03T23:03:14.251Z,101363.75
2023-03-03T23:05:40.963Z,101348.91
2023-03-03T23:08:10.249Z,101349.16
2023-03-03T23:10:36.696Z,101348.34
2023-03-03T23:13:03.064Z,101346.75
2023-03-03T23:15:29.682Z,101346.25
2023-03-03T23:17:56.059Z,101332.16
2023-03-03T23:20:28.200Z,101333.56
2023-03-03T23:22:54.985Z,101324.41
2023-03-03T23:25:25.018Z,101326.44
2023-03-03T23:27:52.218Z,101324.06
2023-03-03T23:30:20.443Z,101324.47
2023-03-03T23:32:47.764Z,101318.66
2023-03-03T23:35:14.657Z,101325.88
2023-03-03T23:37:41.029Z,101329.66
2023-03-03T23:40:08.802Z,101318.69
2023-03-03T23:42:35.161Z,101316.34
2023-03-03T23:45:01.596Z,101323.41
2023-03-03T23:47:27.972Z,101319.16
2023-03-03T23:49:54.345Z,101322.84
2023-03-03T23:52:20.704Z,101314.72
2023-03-03T23:54:47.063Z,101313.94
2023-03-03T23:57:14.391Z,101323.19
2023-03-03T23:59:40.790Z,101317.00
